sensor_id;sensor_type;location;lat;lon;timestamp;temperature;humidity
29917;DHT22;16786;49.466;11.068;2023-04-01T00:00:08;8.70;99.90
29917;DHT22;16786;49.466;11.068;2023-04-01T00:02:39;8.80;99.90
29917;DHT22;16786;49.466;11.068;2023-04-01T00:05:08;8.90;99.90
29917;DHT22;16786;49.466;11.068;2023-04-01T00:07:38;8.90;99.90
29917;DHT22;16786;49.466;11.068;2023-04-01T00:10:07;9.00;99.90
29917;DHT22;16786;49.466;11.068;2023-04-01T00:12:35;9.00;99.90
29917;DHT22;16786;49.466;11.068;2023-04-01T00:15:05;9.00;99.90
29917;DHT22;16786;49.466;11.068;2023-04-01T00:17:33;9.10;99.90
29917;DHT22;16786;49.466;11.068;2023-04-01T00:20:01;9.10;99.90
29917;DHT22;16786;49.466;11.068;2023-04-01T00:22:29;9.10;99.90
29917;DHT22;16786;49.466;11.068;2023-04-01T00:24:56;9.20;99.90
29917;DHT22;16786;49.466;11.068;2023-04-01T00:27:24;9.20;99.90
29917;DHT22;16786;49.466;11.068;2023-04-01T00:29:51;9.20;99.90
29917;DHT22;16786;49.466;11.068;2023-04-01T00:32:19;9.20;99.90
29917;DHT22;16786;49.466;11.068;2023-04-01T00:34:50;9.20;99.90
29917;DHT22;16786;49.466;11.068;2023-04-01T00:37:19;9.30;99.90
29917;DHT22;16786;49.466;11.068;2023-04-01T00:39:48;9.30;99.90
29917;DHT22;16786;49.466;11.068;2023-04-01T00:42:15;9.30;99.90
29917;DHT22;16786;49.466;11.068;2023-04-01T00:44:44;9.30;99.90
29917;DHT22;16786;49.466;11.068;2023-04-01T00:47:12;9.30;99.90
29917;DHT22;16786;49.466;11.068;2023-04-01T00:49:41;9.30;99.90
29917;DHT22;16786;49.466;11.068;2023-04-01T00:52:14;9.30;99.90
29917;DHT22;16786;49.466;11.068;2023-04-01T00:54:46;9.30;99.90
29917;DHT22;16786;49.466;11.068;2023-04-01T00:57:43;9.30;99.90
29917;DHT22;16786;49.466;11.068;2023-04-01T01:00:13;9.30;99.90
29917;DHT22;16786;49.466;11.068;2023-04-01T01:02:44;9.30;99.90
29917;DHT22;16786;49.466;11.068;2023-04-01T01:05:16;9.30;99.90
29917;DHT22;16786;49.466;11.068;2023-04-01T01:08:15;9.30;99.90
29917;DHT22;16786;49.466;11.068;2023-04-01T01:10:48;9.30;99.90
29917;DHT22;16786;49.466;11.068;2023-04-01T01:13:47;9.30;99.90
29917;DHT22;16786;49.466;11.068;2023-04-01T01:16:25;9.20;99.90
29917;DHT22;16786;49.466;11.068;2023-04-01T01:24:27;9.20;99.90
29917;DHT22;16786;49.466;11.068;2023-04-01T01:27:04;9.20;99.90
29917;DHT22;16786;49.466;11.068;2023-04-01T01:37:56;9.20;99.90
29917;DHT22;16786;49.466;11.068;2023-04-01T01:40:26;9.10;99.90
29917;DHT22;16786;49.466;11.068;2023-04-01T01:42:59;9.20;99.90
29917;DHT22;16786;49.466;11.068;2023-04-01T01:45:29;9.20;99.90
29917;DHT22;16786;49.466;11.068;2023-04-01T01:47:59;9.20;99.90
29917;DHT22;16786;49.466;11.068;2023-04-01T01:50:28;9.20;99.90
29917;DHT22;16786;49.466;11.068;2023-04-01T01:53:02;9.20;99.90
29917;DHT22;16786;49.466;11.068;2023-04-01T01:55:33;9.20;99.90
29917;DHT22;16786;49.466;11.068;2023-04-01T01:58:17;9.20;99.90
29917;DHT22;16786;49.466;11.068;2023-04-01T02:01:15;9.20;99.90
29917;DHT22;16786;49.466;11.068;2023-04-01T02:03:41;9.10;99.90
29917;DHT22;16786;49.466;11.068;2023-04-01T02:06:11;9.20;99.90
29917;DHT22;16786;49.466;11.068;2023-04-01T02:08:57;9.20;99.90
29917;DHT22;16786;49.466;11.068;2023-04-01T02:11:36;9.10;99.90
29917;DHT22;16786;49.466;11.068;2023-04-01T02:14:13;9.10;99.90
29917;DHT22;16786;49.466;11.068;2023-04-01T02:16:49;9.20;99.90
29917;DHT22;16786;49.466;11.068;2023-04-01T02:19:18;9.10;99.90
29917;DHT22;16786;49.466;11.068;2023-04-01T02:21:54;9.10;99.90
29917;DHT22;16786;49.466;11.068;2023-04-01T02:24:23;9.20;99.90
29917;DHT22;16786;49.466;11.068;2023-04-01T02:26:51;9.20;99.90
29917;DHT22;16786;49.466;11.068;2023-04-01T02:29:24;9.10;99.90
29917;DHT22;16786;49.466;11.068;2023-04-01T02:31:55;9.20;99.90
29917;DHT22;16786;49.466;11.068;2023-04-01T02:34:24;9.20;99.90
29917;DHT22;16786;49.466;11.068;2023-04-01T02:36:52;9.10;99.90
29917;DHT22;16786;49.466;11.068;2023-04-01T02:39:20;9.20;99.90
29917;DHT22;16786;49.466;11.068;2023-04-01T02:41:48;9.10;99.90
29917;DHT22;16786;49.466;11.068;2023-04-01T02:44:15;9.10;99.90
29917;DHT22;16786;49.466;11.068;2023-04-01T02:46:43;9.20;99.90
29917;DHT22;16786;49.466;11.068;2023-04-01T02:49:11;9.20;99.90
29917;DHT22;16786;49.466;11.068;2023-04-01T02:51:39;9.10;99.90
29917;DHT22;16786;49.466;11.068;2023-04-01T02:54:06;9.10;99.90
29917;DHT22;16786;49.466;11.068;2023-04-01T02:56:34;9.20;99.90
29917;DHT22;16786;49.466;11.068;2023-04-01T02:59:01;9.20;99.90
29917;DHT22;16786;49.466;11.068;2023-04-01T03:01:28;9.20;99.90
29917;DHT22;16786;49.466;11.068;2023-04-01T03:03:55;9.10;99.90
29917;DHT22;16786;49.466;11.068;2023-04-01T03:06:23;9.10;99.90
29917;DHT22;16786;49.466;11.068;2023-04-01T03:08:50;9.10;99.90
29917;DHT22;16786;49.466;11.068;2023-04-01T03:11:17;9.20;99.90
29917;DHT22;16786;49.466;11.068;2023-04-01T03:13:44;9.20;99.90
29917;DHT22;16786;49.466;11.068;2023-04-01T03:16:12;9.10;99.90
29917;DHT22;16786;49.466;11.068;2023-04-01T03:18:40;9.10;99.90
29917;DHT22;16786;49.466;11.068;2023-04-01T03:23:41;9.20;99.90
29917;DHT22;16786;49.466;11.068;2023-04-01T03:26:09;9.20;99.90
29917;DHT22;16786;49.466;11.068;2023-04-01T03:28:36;9.10;99.90
29917;DHT22;16786;49.466;11.068;2023-04-01T03:31:04;9.10;99.90
29917;DHT22;16786;49.466;11.068;2023-04-01T03:33:39;9.10;99.90
29917;DHT22;16786;49.466;11.068;2023-04-01T03:36:07;9.00;99.90
29917;DHT22;16786;49.466;11.068;2023-04-01T03:38:34;9.00;99.90
29917;DHT22;16786;49.466;11.068;2023-04-01T03:41:02;9.00;99.90
29917;DHT22;16786;49.466;11.068;2023-04-01T03:43:31;9.00;99.90
29917;DHT22;16786;49.466;11.068;2023-04-01T03:46:00;9.00;99.90
29917;DHT22;16786;49.466;11.068;2023-04-01T03:48:27;8.90;99.90
29917;DHT22;16786;49.466;11.068;2023-04-01T03:50:55;8.90;99.90
29917;DHT22;16786;49.466;11.068;2023-04-01T03:53:22;9.00;99.90
29917;DHT22;16786;49.466;11.068;2023-04-01T03:55:51;9.00;99.90
29917;DHT22;16786;49.466;11.068;2023-04-01T03:58:19;9.10;99.90
29917;DHT22;16786;49.466;11.068;2023-04-01T04:00:46;9.10;99.90
29917;DHT22;16786;49.466;11.068;2023-04-01T04:03:14;9.00;99.90
29917;DHT22;16786;49.466;11.068;2023-04-01T04:05:49;9.10;99.90
29917;DHT22;16786;49.466;11.068;2023-04-01T04:08:17;9.10;99.90
29917;DHT22;16786;49.466;11.068;2023-04-01T04:10:45;9.10;99.90
29917;DHT22;16786;49.466;11.068;2023-04-01T04:13:13;9.10;99.90
29917;DHT22;16786;49.466;11.068;2023-04-01T04:15:48;9.10;99.90
29917;DHT22;16786;49.466;11.068;2023-04-01T04:18:15;9.10;99.90
29917;DHT22;16786;49.466;11.068;2023-04-01T04:20:46;9.10;99.90
29917;DHT22;16786;49.466;11.068;2023-04-01T04:23:18;9.10;99.90
29917;DHT22;16786;49.466;11.068;2023-04-01T04:26:07;9.00;99.90
29917;DHT22;16786;49.466;11.068;2023-04-01T04:28:35;9.10;99.90
29917;DHT22;16786;49.466;11.068;2023-04-01T04:31:03;9.10;99.90
29917;DHT22;16786;49.466;11.068;2023-04-01T04:33:35;9.10;99.90
29917;DHT22;16786;49.466;11.068;2023-04-01T04:36:04;9.10;99.90
29917;DHT22;16786;49.466;11.068;2023-04-01T04:38:32;9.10;99.90
29917;DHT22;16786;49.466;11.068;2023-04-01T04:41:03;9.10;99.90
29917;DHT22;16786;49.466;11.068;2023-04-01T04:43:35;9.10;99.90
29917;DHT22;16786;49.466;11.068;2023-04-01T04:46:06;9.00;99.90
29917;DHT22;16786;49.466;11.068;2023-04-01T04:48:33;9.00;99.90
29917;DHT22;16786;49.466;11.068;2023-04-01T04:51:01;9.00;99.90
29917;DHT22;16786;49.466;11.068;2023-04-01T04:53:29;9.00;99.90
29917;DHT22;16786;49.466;11.068;2023-04-01T04:55:56;8.90;99.90
29917;DHT22;16786;49.466;11.068;2023-04-01T04:58:33;8.90;99.90
29917;DHT22;16786;49.466;11.068;2023-04-01T05:01:10;9.00;99.90
29917;DHT22;16786;49.466;11.068;2023-04-01T05:03:39;8.80;99.90
29917;DHT22;16786;49.466;11.068;2023-04-01T05:06:08;8.90;99.90
29917;DHT22;16786;49.466;11.068;2023-04-01T05:08:36;9.00;99.90
29917;DHT22;16786;49.466;11.068;2023-04-01T05:11:07;8.90;99.90
29917;DHT22;16786;49.466;11.068;2023-04-01T05:13:41;8.80;99.90
29917;DHT22;16786;49.466;11.068;2023-04-01T05:16:14;8.80;99.90
29917;DHT22;16786;49.466;11.068;2023-04-01T05:18:42;8.80;99.90
29917;DHT22;16786;49.466;11.068;2023-04-01T05:21:12;8.80;99.90
29917;DHT22;16786;49.466;11.068;2023-04-01T05:23:40;8.80;99.90
29917;DHT22;16786;49.466;11.068;2023-04-01T05:26:11;8.80;99.90
29917;DHT22;16786;49.466;11.068;2023-04-01T05:28:39;8.80;99.90
29917;DHT22;16786;49.466;11.068;2023-04-01T05:31:07;8.80;99.90
29917;DHT22;16786;49.466;11.068;2023-04-01T05:33:39;8.80;99.90
29917;DHT22;16786;49.466;11.068;2023-04-01T05:36:12;8.80;99.90
29917;DHT22;16786;49.466;11.068;2023-04-01T05:38:40;8.80;99.90
29917;DHT22;16786;49.466;11.068;2023-04-01T05:41:11;8.80;99.90
29917;DHT22;16786;49.466;11.068;2023-04-01T05:43:43;8.90;99.90
29917;DHT22;16786;49.466;11.068;2023-04-01T05:46:29;8.90;99.90
29917;DHT22;16786;49.466;11.068;2023-04-01T05:49:08;8.90;99.90
29917;DHT22;16786;49.466;11.068;2023-04-01T05:51:36;9.00;99.90
29917;DHT22;16786;49.466;11.068;2023-04-01T05:54:05;9.00;99.90
29917;DHT22;16786;49.466;11.068;2023-04-01T05:56:32;9.00;99.90
29917;DHT22;16786;49.466;11.068;2023-04-01T05:59:00;9.00;99.90
29917;DHT22;16786;49.466;11.068;2023-04-01T06:01:27;9.00;99.90
29917;DHT22;16786;49.466;11.068;2023-04-01T06:03:54;9.00;99.90
29917;DHT22;16786;49.466;11.068;2023-04-01T06:06:27;9.00;99.90
29917;DHT22;16786;49.466;11.068;2023-04-01T06:09:17;8.90;99.90
29917;DHT22;16786;49.466;11.068;2023-04-01T06:12:08;9.10;99.90
29917;DHT22;16786;49.466;11.068;2023-04-01T06:29:04;9.30;99.90
29917;DHT22;16786;49.466;11.068;2023-04-01T06:32:01;9.40;99.90
29917;DHT22;16786;49.466;11.068;2023-04-01T06:37:49;9.50;99.90
29917;DHT22;16786;49.466;11.068;2023-04-01T06:40:38;9.50;99.90
29917;DHT22;16786;49.466;11.068;2023-04-01T06:43:38;9.60;99.90
29917;DHT22;16786;49.466;11.068;2023-04-01T06:46:45;9.70;99.90
29917;DHT22;16786;49.466;11.068;2023-04-01T06:49:48;9.70;99.90
29917;DHT22;16786;49.466;11.068;2023-04-01T06:55:56;9.70;99.90
29917;DHT22;16786;49.466;11.068;2023-04-01T06:59:00;9.80;99.90
29917;DHT22;16786;49.466;11.068;2023-04-01T07:01:35;9.80;99.90
29917;DHT22;16786;49.466;11.068;2023-04-01T07:04:11;9.90;99.90
29917;DHT22;16786;49.466;11.068;2023-04-01T07:06:50;10.00;99.90
29917;DHT22;16786;49.466;11.068;2023-04-01T07:09:22;10.10;99.90
29917;DHT22;16786;49.466;11.068;2023-04-01T07:12:18;10.00;99.90
29917;DHT22;16786;49.466;11.068;2023-04-01T07:15:19;10.20;99.90
29917;DHT22;16786;49.466;11.068;2023-04-01T07:17:55;10.20;99.90
29917;DHT22;16786;49.466;11.068;2023-04-01T07:20:27;10.40;99.90
29917;DHT22;16786;49.466;11.068;2023-04-01T07:23:03;10.40;99.90
29917;DHT22;16786;49.466;11.068;2023-04-01T07:25:55;10.50;99.90
29917;DHT22;16786;49.466;11.068;2023-04-01T07:28:43;10.60;99.90
29917;DHT22;16786;49.466;11.068;2023-04-01T07:34:26;10.50;99.90
29917;DHT22;16786;49.466;11.068;2023-04-01T07:37:18;10.30;99.90
29917;DHT22;16786;49.466;11.068;2023-04-01T07:51:03;10.60;99.90
29917;DHT22;16786;49.466;11.068;2023-04-01T07:53:38;10.60;99.90
29917;DHT22;16786;49.466;11.068;2023-04-01T07:56:12;10.60;99.90
29917;DHT22;16786;49.466;11.068;2023-04-01T08:01:48;10.70;99.90
29917;DHT22;16786;49.466;11.068;2023-04-01T08:07:25;11.00;99.90
29917;DHT22;16786;49.466;11.068;2023-04-01T08:22:30;11.00;99.90
29917;DHT22;16786;49.466;11.068;2023-04-01T08:25:03;11.10;99.90
29917;DHT22;16786;49.466;11.068;2023-04-01T08:27:41;11.20;99.90
29917;DHT22;16786;49.466;11.068;2023-04-01T08:30:25;11.10;99.90
29917;DHT22;16786;49.466;11.068;2023-04-01T08:35:29;11.10;99.90
29917;DHT22;16786;49.466;11.068;2023-04-01T08:38:10;11.20;99.90
29917;DHT22;16786;49.466;11.068;2023-04-01T09:01:20;10.80;99.90
29917;DHT22;16786;49.466;11.068;2023-04-01T09:10:01;11.00;99.90
29917;DHT22;16786;49.466;11.068;2023-04-01T09:18:49;11.00;99.90
29917;DHT22;16786;49.466;11.068;2023-04-01T09:29:44;11.20;99.90
29917;DHT22;16786;49.466;11.068;2023-04-01T09:35:21;11.40;99.90
29917;DHT22;16786;49.466;11.068;2023-04-01T09:47:04;11.20;99.90
29917;DHT22;16786;49.466;11.068;2023-04-01T09:49:41;11.20;99.90
29917;DHT22;16786;49.466;11.068;2023-04-01T09:55:49;10.90;99.90
29917;DHT22;16786;49.466;11.068;2023-04-01T10:35:23;10.60;99.90
29917;DHT22;16786;49.466;11.068;2023-04-01T11:02:01;10.10;99.90
29917;DHT22;16786;49.466;11.068;2023-04-01T11:16:24;10.10;99.90
29917;DHT22;16786;49.466;11.068;2023-04-01T11:25:11;10.00;99.90
29917;DHT22;16786;49.466;11.068;2023-04-01T11:33:28;10.00;99.90
29917;DHT22;16786;49.466;11.068;2023-04-01T11:36:11;9.90;99.90
29917;DHT22;16786;49.466;11.068;2023-04-01T11:45:22;10.00;99.90
29917;DHT22;16786;49.466;11.068;2023-04-01T12:11:09;10.20;99.90
29917;DHT22;16786;49.466;11.068;2023-04-01T12:13:57;10.40;99.90
29917;DHT22;16786;49.466;11.068;2023-04-01T12:30:34;10.80;99.90
29917;DHT22;16786;49.466;11.068;2023-04-01T12:33:20;10.80;99.90
29917;DHT22;16786;49.466;11.068;2023-04-01T12:39:28;10.70;99.90
29917;DHT22;16786;49.466;11.068;2023-04-01T12:50:23;10.20;99.90
29917;DHT22;16786;49.466;11.068;2023-04-01T12:55:44;10.50;99.90
29917;DHT22;16786;49.466;11.068;2023-04-01T13:01:59;10.70;99.90
29917;DHT22;16786;49.466;11.068;2023-04-01T13:04:48;10.90;99.90
29917;DHT22;16786;49.466;11.068;2023-04-01T13:15:28;10.80;99.90
29917;DHT22;16786;49.466;11.068;2023-04-01T13:26:58;10.90;99.90
29917;DHT22;16786;49.466;11.068;2023-04-01T13:41:21;11.30;99.90
29917;DHT22;16786;49.466;11.068;2023-04-01T13:49:30;11.20;99.90
29917;DHT22;16786;49.466;11.068;2023-04-01T13:52:19;11.10;99.90
29917;DHT22;16786;49.466;11.068;2023-04-01T14:00:19;10.90;99.90
29917;DHT22;16786;49.466;11.068;2023-04-01T14:03:28;11.00;99.90
29917;DHT22;16786;49.466;11.068;2023-04-01T14:23:18;10.70;99.90
29917;DHT22;16786;49.466;11.068;2023-04-01T14:26:07;10.70;99.90
29917;DHT22;16786;49.466;11.068;2023-04-01T14:31:54;10.50;99.90
29917;DHT22;16786;49.466;11.068;2023-04-01T14:43:14;10.30;99.90
29917;DHT22;16786;49.466;11.068;2023-04-01T14:46:15;10.30;99.90
29917;DHT22;16786;49.466;11.068;2023-04-01T14:48:57;10.20;99.90
29917;DHT22;16786;49.466;11.068;2023-04-01T14:51:29;10.30;99.90
29917;DHT22;16786;49.466;11.068;2023-04-01T14:54:02;10.30;99.90
29917;DHT22;16786;49.466;11.068;2023-04-01T14:59:34;10.20;99.90
29917;DHT22;16786;49.466;11.068;2023-04-01T15:05:49;10.10;99.90
29917;DHT22;16786;49.466;11.068;2023-04-01T15:08:21;10.10;99.90
29917;DHT22;16786;49.466;11.068;2023-04-01T15:22:51;10.40;99.90
29917;DHT22;16786;49.466;11.068;2023-04-01T15:33:40;10.50;99.90
29917;DHT22;16786;49.466;11.068;2023-04-01T15:36:13;10.50;99.90
29917;DHT22;16786;49.466;11.068;2023-04-01T15:39:13;10.40;99.90
29917;DHT22;16786;49.466;11.068;2023-04-01T15:46:58;10.30;99.90
29917;DHT22;16786;49.466;11.068;2023-04-01T15:49:34;10.30;99.90
29917;DHT22;16786;49.466;11.068;2023-04-01T15:52:09;10.30;99.90
29917;DHT22;16786;49.466;11.068;2023-04-01T15:55:03;10.40;99.90
29917;DHT22;16786;49.466;11.068;2023-04-01T16:00:29;10.30;99.90
29917;DHT22;16786;49.466;11.068;2023-04-01T16:20:06;10.00;99.90
29917;DHT22;16786;49.466;11.068;2023-04-01T16:22:48;10.20;99.90
29917;DHT22;16786;49.466;11.068;2023-04-01T16:25:45;10.10;99.90
29917;DHT22;16786;49.466;11.068;2023-04-01T16:36:30;10.00;99.90
29917;DHT22;16786;49.466;11.068;2023-04-01T16:39:41;10.00;99.90
29917;DHT22;16786;49.466;11.068;2023-04-01T16:47:53;9.80;99.90
29917;DHT22;16786;49.466;11.068;2023-04-01T16:50:54;9.80;99.90
29917;DHT22;16786;49.466;11.068;2023-04-01T16:53:45;9.80;99.90
29917;DHT22;16786;49.466;11.068;2023-04-01T17:05:08;9.70;99.90
29917;DHT22;16786;49.466;11.068;2023-04-01T17:07:49;9.60;99.90
29917;DHT22;16786;49.466;11.068;2023-04-01T17:11:07;9.60;99.90
29917;DHT22;16786;49.466;11.068;2023-04-01T17:22:41;9.50;99.90
29917;DHT22;16786;49.466;11.068;2023-04-01T17:33:42;9.50;99.90
29917;DHT22;16786;49.466;11.068;2023-04-01T17:36:36;9.50;99.90
29917;DHT22;16786;49.466;11.068;2023-04-01T17:42:27;9.50;99.90
29917;DHT22;16786;49.466;11.068;2023-04-01T17:53:03;9.60;99.90
29917;DHT22;16786;49.466;11.068;2023-04-01T17:58:14;9.60;99.90
29917;DHT22;16786;49.466;11.068;2023-04-01T18:06:38;9.60;99.90
29917;DHT22;16786;49.466;11.068;2023-04-01T18:15:11;9.50;99.90
29917;DHT22;16786;49.466;11.068;2023-04-01T18:20:37;9.50;99.90
29917;DHT22;16786;49.466;11.068;2023-04-01T18:26:08;9.50;99.90
29917;DHT22;16786;49.466;11.068;2023-04-01T18:31:36;9.40;99.90
29917;DHT22;16786;49.466;11.068;2023-04-01T18:36:59;9.30;99.90
29917;DHT22;16786;49.466;11.068;2023-04-01T18:39:37;9.40;99.90
29917;DHT22;16786;49.466;11.068;2023-04-01T18:42:10;9.40;99.90
29917;DHT22;16786;49.466;11.068;2023-04-01T18:55:52;9.30;99.90
29917;DHT22;16786;49.466;11.068;2023-04-01T19:01:26;9.40;99.90
29917;DHT22;16786;49.466;11.068;2023-04-01T19:10:01;9.30;99.90
29917;DHT22;16786;49.466;11.068;2023-04-01T19:26:22;9.30;99.90
29917;DHT22;16786;49.466;11.068;2023-04-01T19:34:26;9.30;99.90
29917;DHT22;16786;49.466;11.068;2023-04-01T19:37:09;9.30;99.90
29917;DHT22;16786;49.466;11.068;2023-04-01T19:39:53;9.30;99.90
29917;DHT22;16786;49.466;11.068;2023-04-01T19:42:50;9.30;99.90
29917;DHT22;16786;49.466;11.068;2023-04-01T19:45:39;9.30;99.90
29917;DHT22;16786;49.466;11.068;2023-04-01T19:50:49;9.30;99.90
29917;DHT22;16786;49.466;11.068;2023-04-01T19:59:02;9.40;99.90
29917;DHT22;16786;49.466;11.068;2023-04-01T20:01:43;9.40;99.90
29917;DHT22;16786;49.466;11.068;2023-04-01T20:04:20;9.40;99.90
29917;DHT22;16786;49.466;11.068;2023-04-01T20:06:55;9.30;99.90
29917;DHT22;16786;49.466;11.068;2023-04-01T20:15:04;9.40;99.90
29917;DHT22;16786;49.466;11.068;2023-04-01T20:17:48;9.40;99.90
29917;DHT22;16786;49.466;11.068;2023-04-01T20:20:25;9.40;99.90
29917;DHT22;16786;49.466;11.068;2023-04-01T20:25:58;9.40;99.90
29917;DHT22;16786;49.466;11.068;2023-04-01T20:28:36;9.40;99.90
29917;DHT22;16786;49.466;11.068;2023-04-01T20:34:06;9.40;99.90
29917;DHT22;16786;49.466;11.068;2023-04-01T20:53:35;9.40;99.90
29917;DHT22;16786;49.466;11.068;2023-04-01T20:56:27;9.40;99.90
29917;DHT22;16786;49.466;11.068;2023-04-01T21:05:28;9.30;99.90
29917;DHT22;16786;49.466;11.068;2023-04-01T21:10:49;9.30;99.90
29917;DHT22;16786;49.466;11.068;2023-04-01T21:13:53;9.30;99.90
29917;DHT22;16786;49.466;11.068;2023-04-01T21:22:14;9.40;99.90
29917;DHT22;16786;49.466;11.068;2023-04-01T21:24:58;9.30;99.90
29917;DHT22;16786;49.466;11.068;2023-04-01T21:27:43;9.20;99.90
29917;DHT22;16786;49.466;11.068;2023-04-01T21:49:25;9.10;99.90
29917;DHT22;16786;49.466;11.068;2023-04-01T22:01:06;9.10;99.90
29917;DHT22;16786;49.466;11.068;2023-04-01T22:03:49;9.10;99.90
29917;DHT22;16786;49.466;11.068;2023-04-01T22:09:03;9.10;99.90
29917;DHT22;16786;49.466;11.068;2023-04-01T22:11:48;9.10;99.90
29917;DHT22;16786;49.466;11.068;2023-04-01T22:14:37;9.00;99.90
29917;DHT22;16786;49.466;11.068;2023-04-01T22:17:32;9.00;99.90
29917;DHT22;16786;49.466;11.068;2023-04-01T22:28:11;9.10;99.90
29917;DHT22;16786;49.466;11.068;2023-04-01T22:30:51;9.10;99.90
29917;DHT22;16786;49.466;11.068;2023-04-01T22:33:27;9.10;99.90
29917;DHT22;16786;49.466;11.068;2023-04-01T22:42:06;9.00;99.90
29917;DHT22;16786;49.466;11.068;2023-04-01T22:52:49;9.00;99.90
29917;DHT22;16786;49.466;11.068;2023-04-01T22:55:22;9.00;99.90
29917;DHT22;16786;49.466;11.068;2023-04-01T22:57:57;9.00;99.90
29917;DHT22;16786;49.466;11.068;2023-04-01T23:00:42;9.00;99.90
29917;DHT22;16786;49.466;11.068;2023-04-01T23:03:20;9.00;99.90
29917;DHT22;16786;49.466;11.068;2023-04-01T23:05:52;8.90;99.90
29917;DHT22;16786;49.466;11.068;2023-04-01T23:08:41;8.90;99.90
29917;DHT22;16786;49.466;11.068;2023-04-01T23:11:23;8.90;99.90
29917;DHT22;16786;49.466;11.068;2023-04-01T23:26:17;8.80;99.90
29917;DHT22;16786;49.466;11.068;2023-04-01T23:28:48;8.70;99.90
29917;DHT22;16786;49.466;11.068;2023-04-01T23:31:32;8.70;99.90
29917;DHT22;16786;49.466;11.068;2023-04-01T23:36:30;8.70;99.90
29917;DHT22;16786;49.466;11.068;2023-04-01T23:39:01;8.70;99.90
29917;DHT22;16786;49.466;11.068;2023-04-01T23:41:32;8.70;99.90
29917;DHT22;16786;49.466;11.068;2023-04-01T23:44:08;8.80;99.90
29917;DHT22;16786;49.466;11.068;2023-04-01T23:46:40;8.80;99.90
29917;DHT22;16786;49.466;11.068;2023-04-01T23:49:18;8.80;99.90
29917;DHT22;16786;49.466;11.068;2023-04-01T23:52:22;8.70;99.90
29917;DHT22;16786;49.466;11.068;2023-04-01T23:54:57;8.70;99.90
29917;DHT22;16786;49.466;11.068;2023-04-01T23:57:30;8.70;99.90
